Time;durP1;ratioP1;P1;durP2;ratioP2;P2;SDS_P1;SDS_P2;PMS_P1;PMS_P2;Temp;Humidity;BMP_temperature;BMP_pressure;BME280_temperature;BME280_humidity;BME280_pressure;Samples;Min_cycle;Max_cycle;Signal;HPM_P1;HPM_P2
2022/08/24 00:00:09;;;;;;;0.80;0.77;;;11.40;1.40;;;12.68;100.00;95636.78;647351;216;31746;-72
2022/08/24 00:02:51;;;;;;;1.10;0.98;;;11.60;1.40;;;12.74;100.00;95638.59;646930;216;34874;-72
2022/08/24 00:05:32;;;;;;;1.48;1.37;;;11.50;1.40;;;12.58;100.00;95632.63;645328;216;31814;-70
2022/08/24 00:08:17;;;;;;;1.80;1.70;;;11.30;1.40;;;12.49;100.00;95631.29;646393;212;32770;-70
2022/08/24 00:10:59;;;;;;;1.10;1.00;;;11.20;1.40;;;12.47;100.00;95633.13;646208;216;31572;-69
2022/08/24 00:13:41;;;;;;;2.00;1.10;;;11.10;1.40;;;12.45;100.00;95633.44;645727;216;31569;-70
2022/08/24 00:16:26;;;;;;;1.20;1.10;;;11.10;1.40;;;12.42;100.00;95630.73;645564;213;31580;-70
2022/08/24 00:19:07;;;;;;;0.75;0.75;;;11.10;1.40;;;12.38;100.00;95630.12;646410;216;32482;-69
2022/08/24 00:21:52;;;;;;;1.42;1.33;;;11.00;1.40;;;12.44;100.00;95626.70;618615;225;31893;-69
2022/08/24 00:24:34;;;;;;;0.97;0.97;;;11.00;1.40;;;12.40;100.00;95626.66;646398;216;33455;-69
2022/08/24 00:27:16;;;;;;;1.20;1.10;;;11.20;1.40;;;12.38;100.00;95622.95;645261;216;34578;-69
2022/08/24 00:29:58;;;;;;;1.07;0.87;;;11.30;1.40;;;12.43;100.00;95622.42;646226;216;31592;-69
2022/08/24 00:32:40;;;;;;;0.90;0.90;;;11.30;1.40;;;12.49;100.00;95620.30;645975;216;31538;-69
2022/08/24 00:35:54;;;;;;;3.10;1.48;;;11.20;1.40;;;12.33;100.00;95614.31;647089;213;32117;-71
2022/08/24 00:38:36;;;;;;;1.70;1.60;;;11.10;1.40;;;12.31;100.00;95616.38;645756;216;31668;-69
2022/08/24 00:41:18;;;;;;;1.97;1.10;;;11.10;1.40;;;12.40;100.00;95613.86;646549;216;31610;-69
2022/08/24 00:43:59;;;;;;;2.00;1.40;;;11.30;1.40;;;12.38;100.00;95613.17;646483;216;32373;-69
2022/08/24 00:46:42;;;;;;;2.47;1.40;;;11.20;1.40;;;12.36;100.00;95612.45;646319;216;31553;-69
2022/08/24 00:52:14;;;;;;;1.05;0.95;;;11.00;1.40;;;12.23;100.00;95612.66;647539;216;31543;-69
2022/08/24 00:54:55;;;;;;;1.12;1.02;;;11.00;1.40;;;12.14;100.00;95610.81;646372;215;31646;-69
2022/08/24 00:57:37;;;;;;;1.37;1.27;;;10.90;1.40;;;12.16;100.00;95586.95;645404;216;34789;-69
2022/08/24 01:00:19;;;;;;;1.48;1.37;;;10.80;1.40;;;12.05;100.00;95594.71;645983;216;31651;-69
2022/08/24 01:03:03;;;;;;;1.00;1.00;;;10.60;1.40;;;11.98;100.00;95591.58;646615;212;31484;-70
2022/08/24 01:05:45;;;;;;;2.97;2.17;;;10.50;1.40;;;11.99;100.00;95596.55;618916;222;32008;-68
2022/08/24 01:08:29;;;;;;;1.40;1.30;;;10.40;1.40;;;12.00;100.00;95594.02;646182;212;31527;-69
2022/08/24 01:13:45;;;;;;;0.87;0.83;;;10.40;1.40;;;11.99;100.00;95596.11;645826;216;32168;-71
2022/08/24 01:22:22;;;;;;;0.88;0.88;;;10.20;1.40;;;11.67;100.00;95597.19;646781;213;42098;-70
2022/08/24 01:25:04;;;;;;;0.90;0.90;;;10.10;1.40;;;11.62;100.00;95593.66;646486;216;31543;-69
2022/08/24 01:27:46;;;;;;;1.53;1.43;;;10.10;1.40;;;11.63;100.00;95594.56;646852;212;31559;-70
2022/08/24 01:30:32;;;;;;;1.17;1.17;;;10.00;1.40;;;11.61;100.00;95594.17;645691;216;32505;-72
2022/08/24 01:35:58;;;;;;;0.98;0.98;;;10.10;1.40;;;11.64;100.00;95590.63;646756;216;31534;-69
2022/08/24 01:41:16;;;;;;;0.60;0.60;;;10.10;1.40;;;11.47;100.00;95590.88;646861;216;42672;-70
2022/08/24 01:43:58;;;;;;;0.73;0.73;;;10.10;1.40;;;11.40;100.00;95586.38;646348;216;31881;-69
2022/08/24 01:46:44;;;;;;;1.00;0.80;;;10.00;1.40;;;11.39;100.00;95586.34;644906;216;31560;-70
2022/08/24 01:49:29;;;;;;;0.70;0.70;;;9.90;1.40;;;11.31;100.00;95586.72;646340;212;32017;-69
2022/08/24 01:54:45;;;;;;;1.20;1.20;;;9.70;1.40;;;11.30;100.00;95588.64;647085;216;42686;-70
2022/08/24 01:57:27;;;;;;;1.40;1.30;;;9.70;1.40;;;11.00;100.00;95580.91;646441;216;41889;-69
2022/08/24 02:00:10;;;;;;;0.80;0.80;;;9.40;1.40;;;10.89;100.00;95580.84;645867;216;31489;-70
2022/08/24 02:02:52;;;;;;;0.90;0.57;;;9.30;1.40;;;10.71;100.00;95586.23;618677;222;32522;-69
2022/08/24 02:05:36;;;;;;;0.50;0.50;;;9.20;1.40;;;10.66;100.00;95581.23;646282;212;31511;-71
2022/08/24 02:08:18;;;;;;;1.20;0.95;;;9.10;1.40;;;10.59;100.00;95579.45;646413;212;32132;-70
2022/08/24 02:11:05;;;;;;;1.08;1.05;;;9.10;1.40;;;10.59;100.00;95582.80;647165;216;31541;-70
2022/08/24 02:13:47;;;;;;;0.77;0.77;;;9.20;1.40;;;10.61;100.00;95587.73;619423;226;31873;-70
2022/08/24 02:16:32;;;;;;;0.50;0.50;;;9.20;1.40;;;10.62;100.00;95585.71;635648;216;31744;-69
2022/08/24 02:19:14;;;;;;;1.70;0.85;;;9.20;1.40;;;10.58;100.00;95590.52;646580;216;31499;-70
2022/08/24 02:21:59;;;;;;;1.40;0.60;;;9.10;1.40;;;10.57;100.00;95591.52;619887;222;42534;-69
2022/08/24 02:24:41;;;;;;;0.43;0.27;;;9.20;1.40;;;10.36;100.00;95597.09;645649;212;44064;-71
2022/08/24 02:27:25;;;;;;;2.50;2.00;;;9.10;1.40;;;10.05;100.00;95596.73;645338;216;31896;-71
2022/08/24 02:30:08;;;;;;;1.40;1.30;;;8.90;1.40;;;10.05;100.00;95593.97;646898;216;31485;-70
2022/08/24 02:32:53;;;;;;;0.90;0.90;;;8.80;1.40;;;10.10;100.00;95591.01;644865;212;31783;-69
2022/08/24 02:35:53;;;;;;;0.60;0.60;;;8.70;1.40;;;10.25;100.00;95586.63;646356;212;31470;-69
2022/08/24 02:38:33;;;;;;;1.80;0.70;;;9.00;1.40;;;10.37;100.00;95586.13;647416;216;31524;-70
2022/08/24 02:41:14;;;;;;;0.97;0.93;;;9.20;1.40;;;10.48;100.00;95587.95;646912;216;31633;-69
2022/08/24 02:43:56;;;;;;;1.00;1.00;;;9.20;1.40;;;10.42;100.00;95589.09;645630;216;31551;-69
2022/08/24 02:46:40;;;;;;;0.60;0.60;;;9.10;1.40;;;10.43;100.00;95584.97;646762;216;31478;-70
2022/08/24 02:49:22;;;;;;;0.50;0.40;;;9.10;1.40;;;10.51;100.00;95588.72;647418;216;31562;-70
2022/08/24 02:52:07;;;;;;;1.00;0.80;;;9.20;1.40;;;10.48;100.00;95585.30;646518;216;31883;-70
2022/08/24 02:54:49;;;;;;;0.70;0.65;;;9.10;1.40;;;10.39;100.00;95593.84;645520;216;31478;-69
2022/08/24 02:57:31;;;;;;;1.27;1.20;;;9.10;1.40;;;10.42;100.00;95586.28;618186;226;32704;-69
2022/08/24 03:00:14;;;;;;;0.70;0.50;;;9.00;1.40;;;10.41;100.00;95586.13;631728;222;32122;-69
2022/08/24 03:02:56;;;;;;;0.43;0.40;;;9.00;1.40;;;10.50;100.00;95584.95;645344;216;31489;-69
2022/08/24 03:05:38;;;;;;;0.77;0.60;;;9.10;1.40;;;10.50;100.00;95580.72;646337;212;31520;-69
2022/08/24 03:08:20;;;;;;;0.70;0.70;;;9.10;1.40;;;10.44;100.00;95579.84;647134;216;32056;-69
2022/08/24 03:11:05;;;;;;;1.00;0.80;;;9.10;1.40;;;10.42;100.00;95583.25;646037;216;31533;-69
2022/08/24 03:13:47;;;;;;;2.60;1.40;;;9.10;1.40;;;10.50;100.00;95583.79;646926;216;32008;-69
2022/08/24 03:16:33;;;;;;;1.43;0.70;;;9.10;1.40;;;10.53;100.00;95582.82;627323;215;32004;-69
2022/08/24 03:21:25;;;;;;;0.57;0.52;;;9.20;1.40;;;10.51;100.00;95580.25;646842;216;31488;-69
2022/08/24 03:24:09;;;;;;;0.77;0.53;;;9.20;1.40;;;10.48;100.00;95583.08;619719;226;32023;-69
2022/08/24 03:26:50;;;;;;;1.20;1.17;;;9.20;1.40;;;10.48;100.00;95581.46;646422;216;31510;-69
2022/08/24 03:29:37;;;;;;;1.07;1.00;;;9.20;1.40;;;10.47;100.00;95588.47;646843;215;42147;-69
2022/08/24 03:32:20;;;;;;;1.17;1.07;;;9.10;1.40;;;10.54;100.00;95587.83;646981;216;31488;-69
2022/08/24 03:38:30;;;;;;;1.50;0.90;;;9.00;1.40;;;10.42;100.00;95587.74;647071;216;31560;-69
2022/08/24 03:41:12;;;;;;;1.00;0.90;;;9.00;1.40;;;10.47;100.00;95590.75;646059;216;32163;-69
2022/08/24 03:46:28;;;;;;;1.13;1.03;;;8.90;1.40;;;10.19;100.00;95593.77;646761;216;32202;-69
2022/08/24 03:49:10;;;;;;;8.80;0.80;;;8.80;1.40;;;10.18;100.00;95598.67;618346;225;32197;-69
2022/08/24 03:51:52;;;;;;;0.63;0.63;;;8.80;1.40;;;10.13;100.00;95600.01;646167;213;31533;-69
2022/08/24 03:54:33;;;;;;;1.20;1.10;;;8.80;1.40;;;10.17;100.00;95597.22;647230;216;31521;-69
2022/08/24 03:57:15;;;;;;;1.30;1.20;;;8.90;1.40;;;10.23;100.00;95597.40;646522;216;31611;-69
2022/08/24 04:00:02;;;;;;;0.50;0.50;;;8.90;1.40;;;10.20;100.00;95592.73;646121;216;32188;-69
2022/08/24 04:02:44;;;;;;;1.50;1.10;;;9.00;1.40;;;10.43;100.00;95587.66;619982;226;31981;-69
2022/08/24 04:08:00;;;;;;;1.10;1.00;;;9.20;1.40;;;10.43;100.00;95597.20;646570;216;32147;-71
2022/08/24 04:10:43;;;;;;;1.50;1.10;;;9.10;1.40;;;10.37;100.00;95598.77;647812;216;31522;-69
2022/08/24 04:13:25;;;;;;;0.40;0.40;;;8.90;1.40;;;10.39;100.00;95598.56;646525;216;31499;-69
2022/08/24 04:16:07;;;;;;;0.70;0.70;;;8.90;1.40;;;10.29;100.00;95600.10;638308;216;31692;-70
2022/08/24 04:18:49;;;;;;;1.00;0.90;;;9.00;1.40;;;10.36;100.00;95597.70;646988;216;31617;-68
2022/08/24 04:21:31;;;;;;;1.00;0.52;;;9.20;1.40;;;10.39;100.00;95596.12;644355;216;31609;-72
2022/08/24 04:24:14;;;;;;;1.03;1.03;;;9.10;1.40;;;10.43;100.00;95596.67;647624;216;31655;-69
2022/08/24 04:26:56;;;;;;;0.70;0.70;;;9.10;1.40;;;10.32;100.00;95597.33;646078;216;31556;-70
2022/08/24 04:29:38;;;;;;;1.30;1.20;;;9.00;1.40;;;10.30;100.00;95599.44;647158;216;31545;-70
2022/08/24 04:32:20;;;;;;;0.70;0.70;;;9.10;1.40;;;10.43;100.00;95593.09;647473;212;31525;-69
2022/08/24 04:35:51;;;;;;;0.98;0.88;;;9.30;1.40;;;10.56;100.00;95595.33;646128;216;31509;-69
2022/08/24 04:39:51;;;;;;;0.47;0.40;;;9.40;1.40;;;10.72;100.00;95595.05;647623;216;31501;-69
2022/08/24 04:42:32;;;;;;;1.10;0.90;;;9.50;1.40;;;10.81;100.00;95596.80;645347;216;32981;-68
2022/08/24 04:45:14;;;;;;;0.80;0.80;;;9.60;1.40;;;10.86;100.00;95600.66;646711;216;31478;-69
2022/08/24 04:47:56;;;;;;;1.30;0.70;;;9.70;1.40;;;10.95;100.00;95596.94;619550;225;31867;-69
2022/08/24 04:50:37;;;;;;;0.90;0.80;;;9.80;1.40;;;11.02;100.00;95599.42;646470;216;31555;-69
2022/08/24 04:53:19;;;;;;;0.80;0.80;;;9.80;1.40;;;11.02;100.00;95604.84;644874;216;31513;-70
2022/08/24 04:56:04;;;;;;;0.80;0.80;;;9.70;1.40;;;11.02;100.00;95606.42;645997;216;31640;-71
2022/08/24 04:58:46;;;;;;;0.90;0.90;;;9.60;1.40;;;10.91;100.00;95608.89;645911;212;31607;-69
2022/08/24 05:01:31;;;;;;;0.80;0.80;;;9.50;1.40;;;11.06;100.00;95605.14;646467;216;31750;-70
2022/08/24 05:04:13;;;;;;;2.00;1.10;;;9.80;1.40;;;11.15;100.00;95605.12;646324;216;31586;-70
2022/08/24 05:09:29;;;;;;;0.80;0.50;;;9.90;1.40;;;11.32;100.00;95612.64;646779;216;31560;-69
2022/08/24 05:12:11;;;;;;;0.60;0.60;;;10.10;1.40;;;11.40;100.00;95610.06;646616;212;42621;-70
2022/08/24 05:14:53;;;;;;;1.70;1.60;;;10.20;1.40;;;11.53;100.00;95613.58;645833;212;31669;-69
2022/08/24 05:17:34;;;;;;;1.80;1.60;;;10.50;1.40;;;11.62;100.00;95616.73;645614;216;31542;-68
2022/08/24 05:22:28;;;;;;;1.70;1.60;;;10.70;1.40;;;11.78;100.00;95620.16;645589;216;31496;-71
2022/08/24 05:25:10;;;;;;;1.73;0.80;;;10.60;1.40;;;11.88;100.00;95621.41;646463;216;42765;-69
2022/08/24 05:30:26;;;;;;;0.80;0.73;;;10.90;1.40;;;12.12;100.00;95624.25;647893;216;32101;-69
2022/08/24 05:35:51;;;;;;;1.35;1.25;;;11.10;1.40;;;12.39;100.00;95622.16;645467;216;31532;-69
2022/08/24 05:38:34;;;;;;;0.90;0.62;;;11.20;1.40;;;12.55;100.00;95630.24;646115;216;31480;-69
2022/08/24 05:43:50;;;;;;;0.70;0.70;;;11.70;1.40;;;13.01;100.00;95643.00;645789;216;32035;-70
2022/08/24 05:46:33;;;;;;;0.80;0.70;;;11.90;1.40;;;13.07;100.00;95646.33;645610;212;31524;-68
2022/08/24 05:49:14;;;;;;;1.50;1.40;;;11.80;1.40;;;13.18;100.00;95649.94;646558;216;42180;-68
2022/08/24 05:51:59;;;;;;;1.40;1.30;;;11.90;1.40;;;13.32;100.00;95657.37;647082;216;31563;-68
2022/08/24 05:54:40;;;;;;;1.40;1.30;;;12.00;1.40;;;13.42;100.00;95657.97;644462;212;31517;-67
2022/08/24 05:57:22;;;;;;;2.60;1.90;;;12.10;1.40;;;13.57;100.00;95655.83;646398;216;31553;-68
2022/08/24 06:00:08;;;;;;;1.00;0.90;;;12.30;1.40;;;13.82;100.00;95656.66;647022;212;33351;-68
2022/08/24 06:02:47;;;;;;;0.80;0.80;;;12.60;1.40;;;14.01;100.00;95662.58;646568;216;42158;-67
2022/08/24 06:05:29;;;;;;;1.70;1.40;;;12.70;1.40;;;14.24;100.00;95662.13;646100;216;32103;-68
2022/08/24 06:08:13;;;;;;;1.30;1.00;;;12.90;1.40;;;14.39;100.00;95661.77;645296;216;43138;-68
2022/08/24 06:10:55;;;;;;;1.62;1.30;;;13.00;1.40;;;14.49;100.00;95654.15;619237;226;42513;-68
2022/08/24 06:13:40;;;;;;;2.03;1.65;;;13.10;1.40;;;14.60;100.00;95652.39;646190;212;32584;-68
2022/08/24 06:16:26;;;;;;;3.20;1.60;;;13.10;1.40;;;14.62;100.00;95654.77;638188;215;32078;-69
2022/08/24 06:19:08;;;;;;;1.37;1.27;;;13.10;1.40;;;14.71;100.00;95659.37;646326;212;42257;-71
2022/08/24 06:21:50;;;;;;;2.20;2.10;;;13.20;1.40;;;14.82;100.00;95659.95;646555;216;31802;-69
2022/08/24 06:27:40;;;;;;;2.25;2.03;;;13.50;1.40;;;15.08;100.00;95654.17;645822;212;31588;-68
2022/08/24 06:30:21;;;;;;;1.30;1.20;;;13.70;1.40;;;15.25;100.00;95652.65;645699;216;31858;-71
2022/08/24 06:35:51;;;;;;;8.50;1.48;;;14.00;1.40;;;15.43;100.00;95659.05;645836;216;31602;-68
2022/08/24 06:38:34;;;;;;;1.92;1.58;;;14.00;1.40;;;15.57;100.00;95658.13;646157;216;31608;-68
2022/08/24 06:41:17;;;;;;;1.42;1.10;;;14.20;1.40;;;15.76;100.00;95659.70;646161;215;31517;-68
2022/08/24 06:43:58;;;;;;;1.45;1.17;;;14.40;1.40;;;15.98;100.00;95656.48;646546;216;31522;-68
2022/08/24 06:46:40;;;;;;;1.90;1.80;;;14.60;1.40;;;16.14;100.00;95658.33;646744;216;31571;-69
2022/08/24 06:49:23;;;;;;;1.12;1.02;;;14.80;1.40;;;16.33;100.00;95660.98;646760;216;31577;-68
2022/08/24 06:52:06;;;;;;;1.45;1.35;;;15.00;1.40;;;16.53;100.00;95665.00;646123;216;31509;-68
2022/08/24 06:54:52;;;;;;;1.65;1.48;;;15.20;1.40;;;16.78;100.00;95668.25;647000;216;31581;-68
2022/08/24 06:57:33;;;;;;;1.40;1.33;;;15.40;1.40;;;16.97;100.00;95667.88;645252;216;31572;-67
2022/08/24 07:00:16;;;;;;;1.48;1.37;;;15.80;1.40;;;17.18;100.00;95674.89;647096;216;31518;-68
2022/08/24 07:02:58;;;;;;;2.22;1.15;;;16.00;1.40;;;17.33;100.00;95680.08;646565;212;31602;-68
2022/08/24 07:05:41;;;;;;;1.42;1.20;;;16.10;1.40;;;17.57;100.00;95681.80;646834;212;31588;-69
2022/08/24 07:08:23;;;;;;;2.67;1.35;;;16.20;1.40;;;17.66;100.00;95682.61;645630;215;31563;-68
2022/08/24 07:11:04;;;;;;;1.42;1.33;;;16.30;1.40;;;17.76;100.00;95682.84;646983;212;31530;-69
2022/08/24 07:13:49;;;;;;;1.55;1.45;;;16.40;1.40;;;17.93;100.00;95685.75;646440;216;31507;-69
2022/08/24 07:16:31;;;;;;;1.58;1.48;;;16.70;1.40;;;18.17;100.00;95687.25;647257;216;32054;-69
2022/08/24 07:19:13;;;;;;;3.20;1.50;;;16.80;1.40;;;18.36;100.00;95685.73;647328;216;31527;-68
2022/08/24 07:21:56;;;;;;;1.02;1.02;;;17.00;1.40;;;18.59;100.00;95685.02;646557;216;32043;-68
2022/08/24 07:24:38;;;;;;;1.58;1.48;;;17.20;1.40;;;18.68;100.00;95683.13;645983;216;32284;-69
2022/08/24 07:29:54;;;;;;;2.00;1.70;;;17.60;1.40;;;18.87;100.00;95685.53;647293;216;31539;-69
2022/08/24 07:32:36;;;;;;;1.50;1.40;;;17.40;1.40;;;19.06;100.00;95688.02;646774;216;31580;-69
2022/08/24 07:35:51;;;;;;;5.22;1.52;;;17.60;1.40;;;19.17;100.00;95685.92;647515;216;31649;-69
2022/08/24 07:38:33;;;;;;;2.62;1.62;;;18.00;1.40;;;19.34;100.00;95685.70;646504;216;31558;-68
2022/08/24 07:41:15;;;;;;;1.40;1.23;;;18.10;1.40;;;19.55;100.00;95688.01;646491;212;31575;-69
2022/08/24 07:43:57;;;;;;;1.40;1.30;;;18.20;1.40;;;19.77;100.00;95688.95;645782;216;31587;-69
2022/08/24 07:46:41;;;;;;;1.40;1.20;;;18.40;1.40;;;19.98;100.00;95686.82;646761;216;31568;-69
2022/08/24 07:49:23;;;;;;;2.42;1.62;;;18.80;1.40;;;20.16;100.00;95685.59;645990;216;35618;-69
2022/08/24 07:52:05;;;;;;;2.17;1.42;;;19.00;1.40;;;20.43;100.00;95689.67;646439;212;31603;-69
2022/08/24 07:54:48;;;;;;;1.90;1.40;;;19.40;1.40;;;20.70;100.00;95685.92;618202;226;34964;-69
2022/08/24 07:57:29;;;;;;;3.08;1.30;;;19.60;1.40;;;20.69;100.00;95682.78;646451;212;42174;-68
2022/08/24 08:02:47;;;;;;;2.55;1.27;;;19.70;1.40;;;20.76;100.00;95682.05;646468;216;31560;-69
2022/08/24 08:05:29;;;;;;;1.77;1.25;;;19.60;1.40;;;21.14;100.00;95681.60;645813;212;31583;-69
2022/08/24 08:08:10;;;;;;;1.50;1.15;;;20.00;1.40;;;21.34;97.59;95680.00;646505;216;31788;-69
2022/08/24 08:10:56;;;;;;;3.53;1.42;;;20.10;1.40;;;21.45;97.23;95682.90;647027;216;31752;-68
2022/08/24 08:13:38;;;;;;;1.40;1.30;;;20.00;1.40;;;21.61;97.26;95675.11;619878;226;32017;-68
2022/08/24 08:16:20;;;;;;;1.70;1.00;;;20.20;1.40;;;21.78;93.42;95672.73;636490;212;31718;-69
2022/08/24 08:19:01;;;;;;;2.12;1.10;;;20.50;1.40;;;22.06;93.30;95679.09;646157;216;31995;-71
2022/08/24 08:24:49;;;;;;;2.92;1.40;;;20.70;1.40;;;22.24;86.33;95682.63;646913;213;32192;-69
2022/08/24 08:27:30;;;;;;;2.30;1.60;;;21.00;1.40;;;22.32;86.41;95680.70;646292;216;31594;-69
2022/08/24 08:30:12;;;;;;;1.90;1.70;;;21.10;1.40;;;22.15;81.88;95679.45;646942;216;42563;-69
2022/08/24 08:32:58;;;;;;;1.40;1.30;;;20.80;1.40;;;22.60;85.43;95678.98;646112;216;31587;-69
2022/08/24 08:35:51;;;;;;;1.80;1.60;;;21.30;1.40;;;22.36;79.88;95679.17;646530;216;31642;-69
2022/08/24 08:38:33;;;;;;;1.70;1.30;;;21.30;1.40;;;22.50;81.23;95677.48;618608;222;32013;-72
2022/08/24 08:43:59;;;;;;;1.60;1.50;;;21.70;1.40;;;23.13;79.87;95680.69;647751;212;34689;-68
2022/08/24 08:47:02;;;;;;;1.90;1.42;;;22.00;1.40;;;23.56;79.23;95675.53;618486;222;43343;-69
2022/08/24 08:49:53;;;;;;;1.58;1.48;;;22.40;1.40;;;23.84;78.14;95671.97;646990;216;31500;-69
2022/08/24 08:53:00;;;;;;;1.50;1.40;;;22.90;1.40;;;24.30;76.87;95669.50;631398;222;31660;-69
2022/08/24 08:55:48;;;;;;;1.80;1.70;;;23.10;1.40;;;24.11;72.20;95667.08;647094;216;31520;-69
2022/08/24 08:58:32;;;;;;;1.67;1.58;;;23.30;1.40;;;24.63;72.63;95671.52;646456;216;32051;-69
2022/08/24 09:01:41;;;;;;;3.20;1.98;;;23.70;1.40;;;24.97;70.05;95671.39;647409;216;31515;-69
2022/08/24 09:04:24;;;;;;;1.65;1.55;;;24.00;1.40;;;26.36;66.50;95666.95;631563;221;31701;-70
2022/08/24 09:07:19;;;;;;;2.47;1.60;;;27.80;1.40;;;27.14;59.55;95668.80;646253;216;32142;-70
2022/08/24 09:12:39;;;;;;;3.10;1.60;;;30.20;1.40;;;28.68;54.02;95665.02;646806;216;31533;-69
2022/08/24 09:18:43;;;;;;;1.77;1.55;;;31.70;1.40;;;32.47;54.09;95655.27;645333;216;31804;-70
2022/08/24 09:21:48;;;;;;;2.10;1.50;;;33.60;1.40;;;31.41;46.13;95659.78;646529;212;31601;-70
2022/08/24 09:24:41;;;;;;;1.40;1.30;;;31.70;1.40;;;31.91;48.68;95655.60;647048;216;31604;-70
2022/08/24 09:27:38;;;;;;;4.10;1.30;;;31.40;1.40;;;29.65;49.76;95653.64;647213;216;31778;-70
2022/08/24 09:30:23;;;;;;;2.30;1.50;;;29.60;1.40;;;31.79;46.26;95651.59;647078;216;31600;-71
2022/08/24 09:36:07;;;;;;;2.30;1.60;;;33.60;1.40;;;34.26;41.62;95642.65;618749;226;32210;-70
2022/08/24 09:41:55;;;;;;;1.83;1.73;;;31.90;1.40;;;31.72;43.66;95648.04;646121;216;32313;-70
2022/08/24 09:44:59;;;;;;;2.50;1.70;;;29.80;1.40;;;30.17;46.13;95648.37;646509;216;31664;-70
2022/08/24 09:48:06;;;;;;;1.58;1.48;;;30.20;1.40;;;31.61;45.62;95648.75;647215;216;31545;-70
2022/08/24 09:51:24;;;;;;;1.98;1.77;;;31.40;1.40;;;33.60;43.54;95641.10;647169;212;31804;-70
2022/08/24 09:54:27;;;;;;;1.50;1.40;;;32.60;1.40;;;30.63;43.86;95651.49;646622;216;31541;-71
2022/08/24 09:57:43;;;;;;;1.58;1.40;;;30.10;1.40;;;33.63;40.68;95638.28;645533;216;31530;-70
2022/08/24 10:00:27;;;;;;;1.92;1.65;;;31.40;1.40;;;31.22;44.33;95642.95;646247;216;32132;-70
2022/08/24 10:03:16;;;;;;;2.75;2.00;;;31.00;1.40;;;32.86;46.42;95637.83;646469;216;31489;-70
2022/08/24 10:08:42;;;;;;;1.73;1.62;;;34.60;1.40;;;35.87;38.43;95626.44;645934;216;31602;-71
2022/08/24 10:11:43;;;;;;;1.42;1.33;;;32.60;1.40;;;34.86;42.35;95626.55;646512;216;31596;-71
2022/08/24 10:14:59;;;;;;;2.77;1.87;;;32.70;1.40;;;35.86;37.58;95622.27;646500;216;31619;-71
2022/08/24 10:20:27;;;;;;;2.75;1.65;;;33.70;1.40;;;35.66;37.77;95618.91;645823;216;31549;-71
2022/08/24 10:23:38;;;;;;;2.00;1.90;;;32.50;1.40;;;37.93;36.42;95609.00;646226;212;32991;-70
2022/08/24 10:26:28;;;;;;;1.60;1.50;;;34.20;1.40;;;39.26;36.02;95601.32;647059;216;31929;-71
2022/08/24 10:32:20;;;;;;;1.50;1.40;;;35.20;1.40;;;38.60;35.48;95611.70;646621;212;42801;-71
2022/08/24 10:43:32;;;;;;;1.50;1.40;;;35.10;1.40;;;36.08;38.00;95619.17;647036;216;31622;-70
2022/08/24 10:47:29;;;;;;;1.30;1.20;;;34.80;1.40;;;38.57;34.63;95605.57;646232;216;31882;-69
2022/08/24 10:50:34;;;;;;;2.00;1.52;;;34.00;1.40;;;37.82;35.01;95608.42;644935;212;32167;-71
2022/08/24 11:01:27;;;;;;;1.67;1.40;;;35.20;1.40;;;41.77;31.83;95598.62;646659;216;33073;-71
2022/08/24 11:04:09;;;;;;;1.70;1.40;;;35.60;1.40;;;40.83;32.18;95596.52;647168;212;31992;-71
2022/08/24 11:07:03;;;;;;;1.40;1.30;;;35.80;1.40;;;36.70;36.32;95613.86;645967;216;31502;-71
2022/08/24 11:09:52;;;;;;;1.47;1.37;;;33.60;1.40;;;34.10;38.88;95615.78;646034;212;32100;-70
2022/08/24 11:12:36;;;;;;;1.83;1.63;;;31.70;1.40;;;34.19;39.05;95607.98;646599;212;31532;-71
2022/08/24 11:17:56;;;;;;;1.60;1.50;;;34.20;1.40;;;37.48;34.76;95610.14;646132;212;31535;-71
2022/08/24 11:20:40;;;;;;;1.40;1.30;;;34.20;1.40;;;34.55;37.85;95612.16;646658;212;32198;-71
2022/08/24 11:23:25;;;;;;;1.40;1.30;;;32.10;1.40;;;38.49;34.37;95595.64;646062;216;31684;-71
2022/08/24 11:26:11;;;;;;;3.23;1.50;;;33.80;1.40;;;39.57;33.95;95597.42;646463;212;31525;-71
2022/08/24 11:28:52;;;;;;;1.60;1.50;;;35.20;1.40;;;40.08;34.26;95593.91;646791;212;31481;-71
2022/08/24 11:31:34;;;;;;;2.10;1.60;;;35.50;1.40;;;39.82;34.39;95598.29;646857;216;31513;-71
2022/08/24 11:35:51;;;;;;;1.65;1.55;;;34.40;1.40;;;40.65;33.24;95587.10;648322;216;31934;-71
2022/08/24 11:38:33;;;;;;;1.77;1.63;;;35.40;1.40;;;39.26;35.29;95591.47;645655;216;31656;-71
2022/08/24 11:41:16;;;;;;;1.60;1.47;;;34.80;1.40;;;42.47;31.07;95578.84;645517;216;42173;-71
2022/08/24 11:44:02;;;;;;;1.43;1.30;;;35.90;1.40;;;42.40;31.69;95584.94;646969;216;31559;-70
2022/08/24 11:46:52;;;;;;;1.80;1.70;;;36.10;1.40;;;38.92;34.02;95595.54;646610;216;31696;-69
2022/08/24 11:52:39;;;;;;;1.30;1.20;;;35.50;1.40;;;41.55;31.44;95587.66;647118;216;31576;-71
2022/08/24 11:55:29;;;;;;;1.60;1.50;;;35.10;1.40;;;40.78;32.79;95585.44;646019;216;31634;-71
2022/08/24 12:01:47;;;;;;;1.50;1.40;;;35.00;1.40;;;42.57;30.56;95578.23;620300;222;43071;-70
2022/08/24 12:07:13;;;;;;;1.50;1.40;;;35.70;1.40;;;42.54;30.74;95580.19;646875;216;32225;-70
2022/08/24 12:13:06;;;;;;;1.48;1.30;;;35.60;1.40;;;41.79;31.29;95585.68;646025;212;32133;-70
2022/08/24 12:15:49;;;;;;;1.50;1.40;;;35.60;1.40;;;39.47;33.07;95587.55;641998;216;32222;-71
2022/08/24 12:18:47;;;;;;;2.10;1.35;;;34.60;1.40;;;37.12;34.99;95592.52;646733;216;31560;-71
2022/08/24 12:21:30;;;;;;;1.70;1.30;;;33.40;1.40;;;41.51;31.63;95586.67;647080;216;31571;-70
2022/08/24 12:24:12;;;;;;;3.20;1.20;;;34.60;1.40;;;39.42;32.91;95589.63;645921;216;31552;-71
2022/08/24 12:26:53;;;;;;;2.23;1.60;;;34.70;1.40;;;42.84;29.69;95582.09;647006;216;43314;-70
2022/08/24 12:29:40;;;;;;;1.10;1.00;;;35.20;1.40;;;43.79;29.70;95578.32;646147;216;42213;-70
2022/08/24 12:32:21;;;;;;;1.80;1.60;;;36.10;1.40;;;41.94;29.99;95580.17;647063;216;42199;-71
2022/08/24 12:35:53;;;;;;;1.50;1.40;;;35.30;1.40;;;41.27;31.70;95578.44;645453;216;31561;-69
2022/08/24 12:38:34;;;;;;;1.50;1.40;;;35.60;1.40;;;44.13;30.12;95568.84;619714;226;31985;-71
2022/08/24 12:41:21;;;;;;;1.67;1.58;;;37.10;1.40;;;44.27;29.42;95568.95;646270;216;31616;-71
2022/08/24 12:44:08;;;;;;;2.00;1.90;;;36.10;1.40;;;40.68;32.24;95574.91;647188;212;31507;-72
2022/08/24 12:46:51;;;;;;;1.67;1.57;;;34.40;1.40;;;35.03;38.43;95580.85;645237;216;31566;-71
2022/08/24 12:49:39;;;;;;;1.67;1.57;;;32.00;1.40;;;36.85;37.23;95574.44;647251;216;31515;-71
2022/08/24 12:52:43;;;;;;;1.63;1.30;;;33.00;1.40;;;39.93;33.53;95567.13;648085;216;32125;-69
2022/08/24 12:56:00;;;;;;;1.60;1.50;;;33.90;1.40;;;38.84;34.14;95572.70;645991;216;32399;-71
2022/08/24 12:58:51;;;;;;;2.03;1.50;;;32.00;1.40;;;38.48;35.11;95568.55;646831;216;31708;-70
2022/08/24 13:01:36;;;;;;;1.53;1.40;;;32.20;1.40;;;38.55;35.78;95568.47;646020;216;31514;-70
2022/08/24 13:04:18;;;;;;;1.50;1.40;;;33.40;1.40;;;41.59;32.82;95564.56;647442;216;31574;-71
2022/08/24 13:12:28;;;;;;;4.20;1.55;;;31.30;1.40;;;39.11;35.20;95569.99;645542;216;32142;-71
2022/08/24 13:18:21;;;;;;;2.80;1.45;;;34.70;1.40;;;40.69;33.66;95574.33;645803;216;31870;-71
2022/08/24 13:23:37;;;;;;;1.60;1.50;;;34.30;1.40;;;42.14;32.05;95566.66;646342;216;31546;-71
2022/08/24 13:26:21;;;;;;;1.70;1.10;;;35.40;1.40;;;42.60;31.96;95558.91;647283;216;31546;-71
2022/08/24 13:29:04;;;;;;;1.23;1.13;;;35.00;1.40;;;43.11;31.22;95558.63;646810;216;31484;-71
2022/08/24 13:31:48;;;;;;;1.77;1.57;;;35.30;1.40;;;42.85;31.41;95557.03;645133;215;32189;-71
2022/08/24 13:38:44;;;;;;;1.83;1.40;;;34.10;1.40;;;42.08;32.46;95557.69;645832;216;31552;-71
2022/08/24 13:41:48;;;;;;;1.30;1.20;;;35.00;1.40;;;39.16;35.09;95561.41;645951;216;31550;-69
2022/08/24 13:45:10;;;;;;;1.80;1.00;;;33.60;1.40;;;41.09;32.61;95556.95;645554;216;32108;-71
2022/08/24 13:48:02;;;;;;;1.40;1.30;;;33.90;1.40;;;40.17;33.74;95556.48;618651;225;31939;-71
2022/08/24 13:51:12;;;;;;;1.27;1.10;;;33.60;1.40;;;41.20;32.38;95553.73;645676;216;31494;-71